Time;durP1;ratioP1;P1;durP2;ratioP2;P2;SDS_P1;SDS_P2;PMS_P1;PMS_P2;Temp;Humidity;BMP_temperature;BMP_pressure;BME280_temperature;BME280_humidity;BME280_pressure;Samples;Min_cycle;Max_cycle;Signal;HPM_P1;HPM_P2
2022/11/10 17:05:14;;;;;;;3.65;0.88;;;;;;;20.51;53.60;102234.72;5097350;27;20707;-58
2022/11/10 17:07:41;;;;;;;2.17;0.70;;;;;;;21.58;50.32;102229.13;5072494;28;20087;-58
2022/11/10 17:10:15;;;;;;;1.98;0.75;;;;;;;22.38;48.32;102235.91;5084600;28;20036;-56
2022/11/10 17:12:43;;;;;;;5.00;0.93;;;;;;;22.89;46.38;102222.22;5070044;28;20020;-57
2022/11/10 17:15:13;;;;;;;2.47;0.60;;;;;;;23.29;45.44;102233.28;5085848;28;20029;-58
2022/11/10 17:17:41;;;;;;;3.15;1.17;;;;;;;23.52;45.03;102231.50;5071031;28;20029;-58
2022/11/10 17:20:10;;;;;;;2.67;0.73;;;;;;;23.63;44.65;102230.13;5069432;28;20029;-57
2022/11/10 17:22:37;;;;;;;3.72;0.80;;;;;;;23.79;44.03;102233.25;5070057;28;20032;-58
2022/11/10 17:25:04;;;;;;;2.78;0.60;;;;;;;23.89;44.13;102229.22;5070814;28;20474;-57
2022/11/10 17:27:31;;;;;;;2.85;0.50;;;;;;;23.96;44.04;102232.13;5083175;28;20088;-58
2022/11/10 17:29:58;;;;;;;4.28;0.88;;;;;;;24.02;43.71;102230.56;5069039;28;20028;-58
2022/11/10 17:32:25;;;;;;;2.03;0.70;;;;;;;24.06;43.46;102227.22;5067410;28;20068;-58
2022/11/10 17:34:52;;;;;;;4.03;0.75;;;;;;;24.03;43.32;102222.75;5075470;28;20420;-58
2022/11/10 17:37:20;;;;;;;5.50;1.00;;;;;;;24.12;43.55;102233.53;5078623;28;20051;-59
2022/11/10 17:39:47;;;;;;;3.97;1.08;;;;;;;24.15;43.01;102232.75;5086417;28;20474;-58
2022/11/10 17:42:15;;;;;;;3.20;0.82;;;;;;;24.12;43.27;102230.00;5084594;28;20089;-58
2022/11/10 17:44:42;;;;;;;3.55;0.90;;;;;;;24.12;43.41;102236.16;5070064;28;20032;-59
2022/11/10 17:47:09;;;;;;;2.03;0.40;;;;;;;24.17;43.04;102244.16;5068709;28;20025;-59
2022/11/10 17:49:36;;;;;;;3.50;0.70;;;;;;;24.27;42.98;102248.84;5085047;28;20028;-58
2022/11/10 17:52:04;;;;;;;2.65;0.60;;;;;;;24.17;43.08;102241.53;5073222;28;20049;-57
2022/11/10 17:54:32;;;;;;;2.75;0.75;;;;;;;24.22;42.97;102239.06;5071658;28;20066;-57
2022/11/10 17:56:59;;;;;;;2.97;1.05;;;;;;;24.19;43.25;102234.63;5074506;28;20470;-58
2022/11/10 17:59:26;;;;;;;5.97;1.00;;;;;;;24.26;43.13;102240.94;5060370;28;20052;-52
2022/11/10 18:01:55;;;;;;;3.97;1.10;;;;;;;24.21;42.90;102237.28;5076874;28;20050;-56
2022/11/10 18:04:25;;;;;;;1.33;0.70;;;;;;;24.28;42.80;102247.16;5081547;28;20052;-58
2022/11/10 18:06:53;;;;;;;2.58;1.00;;;;;;;24.30;42.89;102247.19;5082433;28;20040;-56
2022/11/10 18:09:20;;;;;;;1.55;0.55;;;;;;;24.32;42.80;102246.41;5069933;28;20036;-57
2022/11/10 18:11:49;;;;;;;1.70;0.63;;;;;;;24.30;42.78;102241.94;5078462;28;20477;-56
2022/11/10 18:14:17;;;;;;;2.90;0.60;;;;;;;24.33;43.02;102249.91;5065172;28;20037;-57
2022/11/10 18:16:46;;;;;;;5.90;0.90;;;;;;;24.34;42.95;102246.44;5059931;28;20036;-57
2022/11/10 18:19:14;;;;;;;2.60;1.13;;;;;;;24.30;42.66;102242.84;5061876;28;20436;-57
2022/11/10 18:21:43;;;;;;;4.45;0.75;;;;;;;24.38;42.54;102243.97;5068020;28;20144;-57
2022/11/10 18:24:10;;;;;;;2.45;0.98;;;;;;;24.38;42.74;102249.19;5056369;28;20037;-58
2022/11/10 18:26:39;;;;;;;1.35;0.50;;;;;;;24.43;42.94;102249.34;5061748;28;20037;-55
2022/11/10 18:29:07;;;;;;;2.28;0.50;;;;;;;24.38;42.46;102246.59;5056757;28;20104;-57
2022/11/10 18:31:36;;;;;;;2.10;0.77;;;;;;;24.35;42.63;102243.84;5063605;28;20075;-58
2022/11/10 18:34:04;;;;;;;3.15;0.63;;;;;;;24.40;42.76;102250.16;5068019;28;20074;-56
2022/11/10 18:36:33;;;;;;;5.20;0.82;;;;;;;24.40;42.63;102239.66;5054232;28;20474;-57
2022/11/10 18:39:01;;;;;;;2.92;1.13;;;;;;;24.38;42.52;102241.34;5064919;28;20044;-55
2022/11/10 18:41:51;;;;;;;8.52;2.10;;;;;;;24.46;42.61;102254.69;5054174;28;20025;-58
2022/11/10 18:44:18;;;;;;;15.23;5.35;;;;;;;24.50;42.84;102253.94;5058147;28;20386;-57
2022/11/10 18:46:48;;;;;;;26.58;9.10;;;;;;;24.51;42.77;102252.19;5055910;28;20477;-56
2022/11/10 18:49:16;;;;;;;42.45;16.27;;;;;;;24.50;43.06;102246.09;5068605;28;20040;-56
2022/11/10 18:51:46;;;;;;;50.78;19.42;;;;;;;24.53;43.31;102250.53;5062333;28;20496;-57
2022/11/10 18:54:14;;;;;;;43.08;19.10;;;;;;;24.55;43.34;102255.00;5060216;28;20041;-57
2022/11/10 18:56:42;;;;;;;47.30;18.35;;;;;;;24.56;43.57;102255.88;5064909;28;20035;-57
2022/11/10 18:59:13;;;;;;;45.28;18.20;;;;;;;24.56;43.56;102251.53;5060357;28;20033;-56
2022/11/10 19:01:42;;;;;;;40.75;16.17;;;;;;;24.55;43.63;102249.75;5066751;28;20086;-56
2022/11/10 19:04:11;;;;;;;37.17;15.20;;;;;;;24.53;43.47;102251.44;5061157;28;20049;-57
2022/11/10 19:06:40;;;;;;;37.70;15.15;;;;;;;24.55;43.80;102254.09;5064082;28;20047;-57
2022/11/10 19:09:10;;;;;;;36.45;15.07;;;;;;;24.43;43.62;102233.59;5065504;28;20017;-57
2022/11/10 19:11:39;;;;;;;34.80;13.10;;;;;;;24.55;43.74;102248.84;5062170;28;20036;-58
2022/11/10 19:14:08;;;;;;;30.73;12.80;;;;;;;24.60;43.75;102256.84;5063123;28;20028;-58
2022/11/10 19:16:38;;;;;;;33.50;12.25;;;;;;;24.64;43.20;102248.22;5063099;28;20378;-57
2022/11/10 19:19:07;;;;;;;23.42;10.18;;;;;;;24.62;43.50;102249.91;5061772;28;20046;-57
2022/11/10 19:21:35;;;;;;;28.38;11.52;;;;;;;24.62;43.66;102252.53;5063377;28;20025;-58
2022/11/10 19:24:02;;;;;;;28.85;11.07;;;;;;;24.59;43.63;102258.59;5056821;28;20029;-50
2022/11/10 19:26:31;;;;;;;25.38;10.20;;;;;;;24.54;43.47;102252.31;5048213;28;20040;-54
2022/11/10 19:28:58;;;;;;;30.27;10.02;;;;;;;24.52;43.34;102256.59;5049515;28;20548;-59
2022/11/10 19:31:28;;;;;;;31.15;10.68;;;;;;;24.50;43.96;102256.56;5050022;28;20028;-56
2022/11/10 19:33:56;;;;;;;28.85;10.63;;;;;;;24.48;43.81;102260.00;5047219;28;20079;-58
2022/11/10 19:36:25;;;;;;;23.58;9.27;;;;;;;24.54;43.69;102257.56;5047751;28;20052;-57
2022/11/10 19:38:54;;;;;;;21.88;8.25;;;;;;;24.60;43.52;102254.22;5049406;28;20379;-58
2022/11/10 19:41:26;;;;;;;20.27;7.43;;;;;;;24.64;43.37;102263.97;5051446;28;20033;-57
2022/11/10 19:43:54;;;;;;;22.42;7.88;;;;;;;24.60;43.43;102264.72;5048038;28;20124;-57
2022/11/10 19:46:24;;;;;;;21.58;7.70;;;;;;;24.54;43.52;102257.56;5047867;28;20052;-57
2022/11/10 19:48:51;;;;;;;19.63;6.75;;;;;;;24.63;43.69;102265.72;5049017;28;20025;-56
2022/11/10 19:51:20;;;;;;;18.20;7.15;;;;;;;24.53;43.26;102254.06;5050872;28;20036;-53
2022/11/10 19:53:50;;;;;;;14.75;6.10;;;;;;;24.62;43.32;102271.81;5049266;28;20060;-58
2022/11/10 19:56:19;;;;;;;19.38;6.85;;;;;;;24.58;43.23;102262.94;5051009;28;20035;-57
2022/11/10 19:58:47;;;;;;;19.73;6.72;;;;;;;24.64;43.12;102278.00;5048415;28;20798;-56
2022/11/10 20:01:15;;;;;;;13.85;5.43;;;;;;;24.64;43.15;102267.50;5050599;28;20033;-57
2022/11/10 20:03:43;;;;;;;12.48;4.90;;;;;;;24.68;43.27;102269.34;5048418;28;20065;-56
2022/11/10 20:06:13;;;;;;;16.10;5.82;;;;;;;24.63;43.42;102270.97;5049640;28;20401;-52
2022/11/10 20:08:43;;;;;;;16.77;5.85;;;;;;;24.63;43.17;102273.59;5046668;28;20084;-57
2022/11/10 20:11:16;;;;;;;16.55;5.32;;;;;;;24.61;43.08;102272.66;5048731;28;20109;-58
2022/11/10 20:13:44;;;;;;;17.60;5.93;;;;;;;24.55;43.40;102261.97;5046939;28;20071;-55
2022/11/10 20:16:12;;;;;;;15.13;5.10;;;;;;;24.62;43.17;102270.91;5050231;28;20344;-56
2022/11/10 20:18:40;;;;;;;13.68;5.05;;;;;;;24.64;43.13;102277.09;5049073;28;20037;-52
2022/11/10 20:21:10;;;;;;;13.57;5.22;;;;;;;24.64;43.18;102288.50;5049087;28;20041;-57
2022/11/10 20:23:37;;;;;;;11.63;4.72;;;;;;;24.61;43.23;102284.88;5038368;28;20036;-56
2022/11/10 20:26:07;;;;;;;11.55;4.43;;;;;;;24.53;43.08;102268.88;5050183;28;20056;-49
2022/11/10 20:28:36;;;;;;;12.40;4.72;;;;;;;24.63;43.19;102277.94;5046853;28;20033;-57
2022/11/10 20:31:06;;;;;;;12.00;4.10;;;;;;;24.62;43.15;102279.69;5048981;28;20074;-55
2022/11/10 20:33:34;;;;;;;9.15;3.78;;;;;;;24.51;42.99;102270.56;5046622;28;20032;-55
2022/11/10 20:36:22;;;;;;;9.48;4.15;;;;;;;24.53;43.46;102282.00;5050185;28;20063;-57
2022/11/10 20:38:51;;;;;;;10.48;3.72;;;;;;;24.51;43.23;102271.47;5027140;28;20080;-56
2022/11/10 20:41:24;;;;;;;9.30;3.92;;;;;;;24.61;42.98;102293.66;5048875;28;20460;-53
2022/11/10 20:43:53;;;;;;;10.88;3.83;;;;;;;24.70;42.73;102293.94;5047107;28;20068;-57
2022/11/10 20:46:22;;;;;;;10.43;3.63;;;;;;;24.67;43.03;102287.69;5047824;28;20072;-50
2022/11/10 20:48:49;;;;;;;8.98;3.30;;;;;;;24.61;43.13;102292.72;5049771;28;20485;-53
2022/11/10 20:51:19;;;;;;;9.40;3.03;;;;;;;24.62;42.84;102292.81;5050999;28;20036;-57
2022/11/10 20:53:47;;;;;;;6.40;2.75;;;;;;;24.68;42.73;102306.09;5052155;28;20033;-58
2022/11/10 20:56:15;;;;;;;10.02;3.78;;;;;;;24.70;42.87;102314.94;5051256;28;20028;-56
2022/11/10 20:58:44;;;;;;;6.78;2.60;;;;;;;24.55;43.16;102303.94;5049490;28;20036;-49
2022/11/10 21:01:13;;;;;;;4.60;2.10;;;;;;;24.54;43.05;102316.19;5050633;28;20036;-57
2022/11/10 21:03:42;;;;;;;10.20;3.15;;;;;;;24.52;43.17;102301.22;5061234;28;20055;-57
2022/11/10 21:06:10;;;;;;;7.25;2.70;;;;;;;24.53;42.94;102309.16;5072301;28;20032;-57
2022/11/10 21:08:39;;;;;;;6.82;2.55;;;;;;;24.49;43.10;102315.13;5072644;28;20024;-57
2022/11/10 21:11:09;;;;;;;6.07;1.98;;;;;;;24.52;42.93;102316.94;5072872;28;20028;-57
2022/11/10 21:13:37;;;;;;;6.20;2.40;;;;;;;24.53;43.19;102321.34;5052455;28;20101;-52
2022/11/10 21:16:06;;;;;;;8.10;2.15;;;;;;;24.63;42.69;102322.53;5035000;28;20033;-57
2022/11/10 21:18:36;;;;;;;7.75;2.78;;;;;;;24.61;42.70;102334.72;5055665;28;20021;-45
2022/11/10 21:21:04;;;;;;;5.35;1.95;;;;;;;24.65;42.57;102339.22;5056702;28;20113;-48
2022/11/10 21:23:32;;;;;;;6.03;2.00;;;;;;;24.63;42.57;102339.19;5049767;28;20494;-56
2022/11/10 21:26:02;;;;;;;7.53;2.05;;;;;;;24.52;42.78;102346.72;5051736;28;20116;-56
2022/11/10 21:28:30;;;;;;;8.40;2.10;;;;;;;24.48;42.98;102351.81;5052079;28;20109;-57
2022/11/10 21:31:08;;;;;;;6.25;1.55;;;;;;;24.41;42.89;102335.88;5034945;28;20048;-57
2022/11/10 21:33:37;;;;;;;4.55;1.65;;;;;;;24.45;42.96;102343.84;5051208;28;20041;-57
2022/11/10 21:36:07;;;;;;;6.47;1.50;;;;;;;24.32;42.90;102314.59;5051167;28;20060;-57
2022/11/10 21:38:35;;;;;;;6.93;2.00;;;;;;;24.56;42.46;102352.94;5052337;28;20053;-57
2022/11/10 21:41:04;;;;;;;5.25;1.70;;;;;;;24.54;42.79;102352.91;5052426;28;20025;-58
2022/11/10 21:43:33;;;;;;;5.75;1.60;;;;;;;24.56;42.45;102351.22;5052531;28;20033;-58
2022/11/10 21:46:01;;;;;;;6.00;1.90;;;;;;;24.54;42.78;102344.13;5051051;28;20075;-58
2022/11/10 21:48:30;;;;;;;6.15;1.75;;;;;;;24.47;42.97;102357.91;5052609;28;20086;-58
